Time;durP1;ratioP1;P1;durP2;ratioP2;P2;SDS_P1;SDS_P2;PMS_P1;PMS_P2;Temp;Humidity;BMP_temperature;BMP_pressure;BME280_temperature;BME280_humidity;BME280_pressure;Samples;Min_cycle;Max_cycle;Signal;HPM_P1;HPM_P2
2023/07/05 00:01:30;;;;;;;16.15;8.20;;;15.80;99.90;;;;;;4983267;28;20135;-65
2023/07/05 00:03:56;;;;;;;17.85;9.07;;;15.70;99.90;;;;;;4984838;28;20121;-66
2023/07/05 00:06:22;;;;;;;19.33;8.90;;;15.70;99.90;;;;;;4984508;28;20105;-66
2023/07/05 00:08:48;;;;;;;18.83;8.18;;;15.70;99.90;;;;;;4982658;28;20816;-66
2023/07/05 00:11:13;;;;;;;18.55;8.57;;;15.70;99.90;;;;;;4996826;28;20057;-66
2023/07/05 00:13:39;;;;;;;18.55;8.10;;;15.60;99.90;;;;;;4988292;28;20034;-66
2023/07/05 00:16:06;;;;;;;17.02;8.00;;;15.60;99.90;;;;;;5006272;28;20081;-66
2023/07/05 00:18:32;;;;;;;17.08;8.57;;;15.60;99.90;;;;;;4989900;28;20036;-65
2023/07/05 00:21:05;;;;;;;20.05;9.30;;;15.60;99.90;;;;;;5000011;28;20034;-65
2023/07/05 00:23:34;;;;;;;21.27;9.00;;;15.50;99.90;;;;;;4994823;28;20050;-65
2023/07/05 00:26:00;;;;;;;17.55;8.52;;;15.50;99.90;;;;;;5006875;28;20040;-66
2023/07/05 00:28:25;;;;;;;20.70;9.35;;;15.50;99.90;;;;;;4996912;28;20048;-66
2023/07/05 00:30:51;;;;;;;20.38;9.80;;;15.50;99.90;;;;;;5000456;28;20026;-66
2023/07/05 00:33:17;;;;;;;17.60;9.52;;;15.50;99.90;;;;;;5003803;28;20030;-65
2023/07/05 00:35:48;;;;;;;19.33;9.70;;;15.50;99.90;;;;;;4993776;28;20065;-66
2023/07/05 00:38:13;;;;;;;17.92;9.70;;;15.50;99.90;;;;;;5005199;28;20529;-66
2023/07/05 00:40:39;;;;;;;17.30;9.35;;;15.50;99.90;;;;;;4998960;28;20101;-65
2023/07/05 00:43:05;;;;;;;21.77;10.80;;;15.50;99.90;;;;;;4996791;28;20137;-65
2023/07/05 00:45:49;;;;;;;17.42;8.73;;;15.50;99.90;;;;;;5005353;28;20430;-65
2023/07/05 00:48:18;;;;;;;18.92;9.70;;;15.50;99.90;;;;;;4981079;28;20370;-65
2023/07/05 00:50:47;;;;;;;21.35;10.60;;;15.40;99.90;;;;;;5000878;28;20034;-66
2023/07/05 00:53:13;;;;;;;23.75;10.75;;;15.40;99.90;;;;;;5003329;28;20433;-66
2023/07/05 00:55:44;;;;;;;19.17;10.70;;;15.40;99.90;;;;;;4993573;28;20030;-67
2023/07/05 00:58:10;;;;;;;22.70;11.20;;;15.40;99.90;;;;;;5005208;28;20033;-67
2023/07/05 01:00:36;;;;;;;23.45;11.57;;;15.40;99.90;;;;;;4998416;28;20030;-67
2023/07/05 01:03:07;;;;;;;20.63;11.75;;;15.40;99.90;;;;;;4998348;28;20735;-67
2023/07/05 01:05:33;;;;;;;23.88;11.52;;;15.40;99.90;;;;;;5005796;28;20540;-67
2023/07/05 01:07:59;;;;;;;22.48;12.23;;;15.40;99.90;;;;;;4993252;28;20038;-67
2023/07/05 01:10:26;;;;;;;26.42;12.32;;;15.40;99.90;;;;;;5003010;28;20041;-67
2023/07/05 01:13:10;;;;;;;22.80;12.00;;;15.40;99.90;;;;;;4999797;28;20030;-67
2023/07/05 01:15:52;;;;;;;20.10;11.20;;;15.40;99.90;;;;;;4993520;28;20030;-67
2023/07/05 01:18:41;;;;;;;23.58;13.02;;;15.40;99.90;;;;;;4981525;28;20105;-66
2023/07/05 01:21:21;;;;;;;25.50;11.63;;;15.40;99.90;;;;;;4997119;28;20035;-67
2023/07/05 01:24:25;;;;;;;22.08;12.40;;;15.40;99.90;;;;;;5005679;28;20119;-66
2023/07/05 01:27:32;;;;;;;22.63;11.80;;;15.40;99.90;;;;;;4999723;28;20034;-66
2023/07/05 01:30:51;;;;;;;22.30;10.80;;;15.40;99.90;;;;;;4992904;28;20045;-66
2023/07/05 01:33:47;;;;;;;21.58;10.80;;;15.50;99.90;;;;;;4991520;28;20042;-66
2023/07/05 01:36:14;;;;;;;24.88;11.02;;;15.50;99.90;;;;;;4977354;28;20104;-66
2023/07/05 01:38:39;;;;;;;20.30;10.10;;;15.60;99.90;;;;;;5000608;28;20590;-67
2023/07/05 01:41:07;;;;;;;19.98;8.93;;;15.60;99.90;;;;;;5001555;28;20116;-66
2023/07/05 01:43:36;;;;;;;16.92;8.35;;;15.60;99.90;;;;;;4993411;28;20125;-66
2023/07/05 01:46:17;;;;;;;15.13;7.00;;;15.60;99.90;;;;;;5005542;28;20093;-67
2023/07/05 01:48:56;;;;;;;16.50;8.02;;;15.60;99.90;;;;;;4998364;28;20037;-67
2023/07/05 01:51:39;;;;;;;14.52;6.50;;;15.60;99.90;;;;;;4994934;28;20069;-68
2023/07/05 01:54:16;;;;;;;16.05;7.55;;;15.60;99.90;;;;;;4977514;28;20033;-68
2023/07/05 01:57:10;;;;;;;15.60;6.53;;;15.60;99.90;;;;;;5000291;28;20041;-68
2023/07/05 01:59:55;;;;;;;16.95;6.72;;;15.60;99.90;;;;;;5005492;28;20034;-67
2023/07/05 02:02:26;;;;;;;14.68;6.57;;;15.60;99.90;;;;;;4981466;28;20396;-67
2023/07/05 02:04:52;;;;;;;11.20;5.13;;;15.60;99.90;;;;;;4998915;28;20038;-67
2023/07/05 02:07:27;;;;;;;11.73;4.35;;;15.50;99.90;;;;;;5002774;28;20034;-67
2023/07/05 02:09:53;;;;;;;12.90;5.85;;;15.50;99.90;;;;;;4992702;28;20030;-68
2023/07/05 02:12:18;;;;;;;10.63;4.03;;;15.50;99.90;;;;;;5006846;28;20027;-67
2023/07/05 02:14:44;;;;;;;14.73;4.40;;;15.60;99.90;;;;;;5001700;28;20033;-66
2023/07/05 02:17:09;;;;;;;11.80;3.95;;;15.50;99.90;;;;;;4999749;28;20038;-67
2023/07/05 02:19:35;;;;;;;10.45;4.35;;;15.50;99.90;;;;;;5008652;28;20033;-66
2023/07/05 02:22:02;;;;;;;8.23;2.97;;;15.50;99.90;;;;;;4996007;28;20359;-67
2023/07/05 02:24:28;;;;;;;10.15;3.55;;;15.50;99.90;;;;;;5005244;28;20082;-68
2023/07/05 02:26:55;;;;;;;12.52;3.28;;;15.50;99.90;;;;;;5003262;28;20025;-67
2023/07/05 02:29:20;;;;;;;6.65;2.75;;;15.50;99.90;;;;;;4998605;28;20030;-66
2023/07/05 02:31:46;;;;;;;9.50;2.22;;;15.40;99.90;;;;;;5008606;28;20037;-67
2023/07/05 02:34:11;;;;;;;9.52;2.70;;;15.40;99.90;;;;;;4996918;28;20044;-67
2023/07/05 02:36:38;;;;;;;12.68;2.47;;;15.30;99.90;;;;;;5004207;28;20035;-67
2023/07/05 02:39:03;;;;;;;14.50;2.63;;;15.30;99.90;;;;;;5004143;28;20057;-67
2023/07/05 02:41:29;;;;;;;10.07;2.50;;;15.30;99.90;;;;;;4996964;28;20056;-66
2023/07/05 02:43:56;;;;;;;11.20;2.42;;;15.30;99.90;;;;;;5006889;28;20069;-66
2023/07/05 02:46:25;;;;;;;16.30;3.15;;;15.20;99.90;;;;;;4998316;28;20022;-67
2023/07/05 02:48:56;;;;;;;5.75;2.03;;;15.30;99.90;;;;;;5001816;28;20037;-67
2023/07/05 02:51:23;;;;;;;7.53;2.13;;;15.20;99.90;;;;;;5003082;28;20113;-66
2023/07/05 02:53:48;;;;;;;11.50;3.53;;;15.10;99.90;;;;;;5008367;28;20034;-66
2023/07/05 02:56:15;;;;;;;5.55;2.60;;;15.00;99.90;;;;;;4997062;28;20041;-67
2023/07/05 02:58:40;;;;;;;6.75;2.38;;;14.90;99.90;;;;;;5003027;28;20034;-65
2023/07/05 03:01:06;;;;;;;8.57;2.75;;;14.80;99.90;;;;;;5003949;28;20123;-67
2023/07/05 03:03:32;;;;;;;5.75;2.58;;;14.80;99.90;;;;;;4996282;28;20538;-66
2023/07/05 03:05:59;;;;;;;10.43;3.10;;;14.70;99.90;;;;;;5006618;28;20112;-67
2023/07/05 03:08:25;;;;;;;9.93;2.60;;;14.70;99.90;;;;;;4998312;28;20109;-66
2023/07/05 03:10:52;;;;;;;9.93;2.60;;;14.70;99.90;;;;;;5001562;28;20034;-65
2023/07/05 03:13:18;;;;;;;9.77;3.10;;;14.60;99.90;;;;;;5004124;28;20425;-66
2023/07/05 03:15:44;;;;;;;9.68;2.92;;;14.60;99.90;;;;;;4994918;28;20026;-67
2023/07/05 03:18:09;;;;;;;9.60;3.38;;;14.60;99.90;;;;;;5007219;28;20022;-65
2023/07/05 03:20:38;;;;;;;8.10;3.35;;;14.50;99.90;;;;;;5000170;28;20044;-65
2023/07/05 03:23:03;;;;;;;9.23;3.80;;;14.50;99.90;;;;;;4999410;28;20070;-65
2023/07/05 03:25:29;;;;;;;11.82;4.55;;;14.40;99.90;;;;;;5006786;28;20164;-66
2023/07/05 03:27:54;;;;;;;12.98;4.80;;;14.40;99.90;;;;;;4995008;28;20461;-66
2023/07/05 03:30:20;;;;;;;10.45;4.07;;;14.40;99.90;;;;;;5005083;28;20030;-66
2023/07/05 03:32:46;;;;;;;9.07;5.32;;;14.40;99.90;;;;;;5000425;28;20538;-66
2023/07/05 03:35:12;;;;;;;14.48;5.63;;;14.40;99.90;;;;;;4998068;28;20110;-66
2023/07/05 03:37:38;;;;;;;10.43;5.03;;;14.40;99.90;;;;;;5007523;28;20038;-67
2023/07/05 03:40:04;;;;;;;13.65;5.57;;;14.40;99.90;;;;;;4994594;28;20030;-67
2023/07/05 03:42:29;;;;;;;8.20;3.63;;;14.40;99.90;;;;;;5003856;28;20049;-66
2023/07/05 03:44:55;;;;;;;9.70;3.80;;;14.40;99.90;;;;;;5001705;28;20045;-67
2023/07/05 03:47:21;;;;;;;12.85;4.57;;;14.40;99.90;;;;;;4996575;28;20030;-67
2023/07/05 03:49:46;;;;;;;13.30;5.03;;;14.40;99.90;;;;;;5007304;28;20081;-65
2023/07/05 03:52:14;;;;;;;5.50;2.25;;;14.40;99.90;;;;;;4995835;28;20053;-66
2023/07/05 03:54:39;;;;;;;5.53;3.17;;;14.40;99.90;;;;;;5002173;28;20458;-66
2023/07/05 03:57:05;;;;;;;6.82;3.10;;;14.40;99.90;;;;;;5002597;28;20033;-66
2023/07/05 03:59:30;;;;;;;10.02;3.83;;;14.30;99.90;;;;;;4994745;28;20542;-67
2023/07/05 04:01:56;;;;;;;7.43;4.07;;;14.30;99.90;;;;;;4993661;28;20302;-67
2023/07/05 04:04:22;;;;;;;12.52;4.20;;;14.30;99.90;;;;;;5004582;28;20092;-65
2023/07/05 04:06:47;;;;;;;5.82;3.10;;;14.30;99.90;;;;;;5000454;28;20427;-66
2023/07/05 04:09:13;;;;;;;7.95;3.60;;;14.30;99.90;;;;;;4998108;28;20037;-65
2023/07/05 04:11:39;;;;;;;8.38;3.33;;;14.20;99.90;;;;;;5007235;28;20038;-65
2023/07/05 04:14:04;;;;;;;8.50;3.58;;;14.20;99.90;;;;;;4994770;28;20469;-67
2023/07/05 04:16:30;;;;;;;5.57;2.75;;;14.10;99.90;;;;;;5003597;28;20064;-67
2023/07/05 04:18:57;;;;;;;6.97;2.63;;;14.10;99.90;;;;;;5001623;28;20029;-66
2023/07/05 04:21:24;;;;;;;8.95;2.42;;;14.10;99.90;;;;;;4996062;28;20513;-66
2023/07/05 04:23:50;;;;;;;12.07;2.78;;;14.10;99.90;;;;;;5006375;28;20059;-66
2023/07/05 04:26:19;;;;;;;9.27;2.40;;;14.00;99.90;;;;;;4996398;28;20034;-66
2023/07/05 04:28:45;;;;;;;8.77;2.13;;;13.90;99.90;;;;;;5000972;28;20072;-67
2023/07/05 04:31:17;;;;;;;10.98;2.08;;;13.90;99.90;;;;;;5003083;28;20034;-67
2023/07/05 04:33:43;;;;;;;11.75;2.33;;;13.90;99.90;;;;;;4993563;28;20108;-67
2023/07/05 04:36:09;;;;;;;13.68;2.65;;;13.90;99.90;;;;;;5010252;28;20030;-66
2023/07/05 04:38:35;;;;;;;16.42;3.00;;;13.90;99.90;;;;;;5002102;28;20034;-66
2023/07/05 04:41:02;;;;;;;14.38;2.50;;;13.90;99.90;;;;;;5000175;28;20030;-66
2023/07/05 04:43:28;;;;;;;16.45;3.20;;;13.90;99.90;;;;;;4994753;28;20110;-66
2023/07/05 04:45:57;;;;;;;12.27;3.05;;;13.90;99.90;;;;;;5006403;28;20034;-66
2023/07/05 04:48:25;;;;;;;14.30;2.42;;;14.00;99.90;;;;;;4996162;28;20440;-66
2023/07/05 04:50:54;;;;;;;10.00;2.28;;;14.00;99.90;;;;;;5002856;28;20038;-66
2023/07/05 04:53:21;;;;;;;17.83;3.22;;;14.00;99.90;;;;;;4996072;28;20038;-65
2023/07/05 04:55:51;;;;;;;14.43;1.80;;;14.00;99.90;;;;;;5005826;28;20029;-65
2023/07/05 04:58:18;;;;;;;12.70;2.92;;;14.00;99.90;;;;;;4995917;28;20125;-65
2023/07/05 05:00:49;;;;;;;17.45;2.65;;;14.10;99.90;;;;;;5000974;28;20034;-65
2023/07/05 05:03:16;;;;;;;19.15;2.70;;;14.00;99.90;;;;;;4997785;28;20415;-66
2023/07/05 05:05:47;;;;;;;13.75;3.00;;;14.00;99.90;;;;;;4990701;28;20128;-65
2023/07/05 05:08:13;;;;;;;14.70;2.97;;;14.00;99.90;;;;;;5004960;28;20053;-66
2023/07/05 05:10:39;;;;;;;15.18;3.35;;;14.00;99.90;;;;;;4998385;28;20455;-66
2023/07/05 05:13:06;;;;;;;14.77;3.10;;;14.00;99.90;;;;;;4996069;28;20030;-66
2023/07/05 05:15:37;;;;;;;22.92;3.30;;;13.90;99.90;;;;;;4990665;28;20045;-66
2023/07/05 05:18:03;;;;;;;17.75;2.78;;;13.80;99.90;;;;;;4986353;28;20176;-66
2023/07/05 05:20:30;;;;;;;14.32;2.65;;;13.80;99.90;;;;;;5002831;28;20152;-66
2023/07/05 05:22:57;;;;;;;19.25;2.90;;;13.70;99.90;;;;;;5000230;28;20494;-66
2023/07/05 05:25:22;;;;;;;16.75;2.92;;;13.70;99.90;;;;;;4995095;28;20097;-64
2023/07/05 05:27:48;;;;;;;15.05;3.30;;;13.70;99.90;;;;;;5005657;28;20077;-65
2023/07/05 05:30:14;;;;;;;12.32;2.60;;;13.60;99.90;;;;;;4994911;28;20482;-65
2023/07/05 05:32:39;;;;;;;11.63;2.72;;;13.60;99.90;;;;;;5000756;28;20034;-65
2023/07/05 05:35:05;;;;;;;16.23;3.50;;;13.50;99.90;;;;;;5001825;28;20040;-66
2023/07/05 05:37:31;;;;;;;17.58;2.70;;;13.30;99.90;;;;;;4955641;28;20037;-65
2023/07/05 05:39:56;;;;;;;20.77;4.13;;;13.10;99.90;;;;;;4993874;28;20038;-67
2023/07/05 05:42:22;;;;;;;22.10;4.35;;;13.00;99.90;;;;;;4977513;28;20046;-65
2023/07/05 05:44:48;;;;;;;28.15;4.63;;;12.90;99.90;;;;;;4988632;28;20045;-66
2023/07/05 05:47:14;;;;;;;19.77;3.80;;;12.70;99.90;;;;;;4991526;28;20043;-67
2023/07/05 05:49:40;;;;;;;22.98;3.35;;;12.40;99.90;;;;;;4992910;28;20089;-66
2023/07/05 05:52:06;;;;;;;10.75;2.83;;;12.20;99.90;;;;;;4992467;28;20069;-66
2023/07/05 05:54:33;;;;;;;13.35;3.30;;;12.00;99.90;;;;;;4994206;28;20395;-66
2023/07/05 05:56:58;;;;;;;21.80;4.13;;;11.90;99.90;;;;;;4992676;28;20026;-66
2023/07/05 05:59:25;;;;;;;23.42;3.50;;;11.70;99.90;;;;;;4991270;28;20034;-66
2023/07/05 06:01:51;;;;;;;25.23;3.92;;;11.60;99.90;;;;;;4992730;28;20061;-68
2023/07/05 06:04:16;;;;;;;16.35;3.20;;;11.60;99.90;;;;;;4998323;28;20398;-66
2023/07/05 06:06:42;;;;;;;25.85;4.82;;;11.60;99.90;;;;;;5003606;28;20038;-67
2023/07/05 06:09:08;;;;;;;22.75;4.95;;;11.60;99.90;;;;;;5005104;28;20125;-69
2023/07/05 06:11:33;;;;;;;23.23;3.75;;;11.60;99.90;;;;;;4998363;28;20068;-68
2023/07/05 06:13:59;;;;;;;35.58;5.95;;;11.70;99.90;;;;;;5003007;28;20517;-69
2023/07/05 06:16:25;;;;;;;23.90;4.72;;;11.80;99.90;;;;;;5006336;28;20081;-72
2023/07/05 06:18:50;;;;;;;29.63;5.53;;;12.00;99.90;;;;;;5003163;28;20062;-72
2023/07/05 06:21:16;;;;;;;33.58;7.45;;;12.10;99.90;;;;;;4999149;28;20068;-74
2023/07/05 06:23:41;;;;;;;0.57;0.40;;;12.30;99.90;;;;;;5007981;28;20050;-72
2023/07/05 06:26:09;;;;;;;43.30;7.85;;;12.40;99.90;;;;;;4995662;28;20034;-73
2023/07/05 06:28:34;;;;;;;45.78;7.80;;;12.50;99.90;;;;;;5004488;28;20061;-72
2023/07/05 06:31:09;;;;;;;38.15;6.75;;;12.60;99.90;;;;;;5001118;28;20588;-72
2023/07/05 06:33:36;;;;;;;30.25;5.47;;;12.50;99.90;;;;;;5008348;28;20401;-70
2023/07/05 06:36:01;;;;;;;35.80;5.50;;;12.50;99.90;;;;;;4995904;28;20105;-71
2023/07/05 06:38:28;;;;;;;37.60;7.35;;;12.50;99.90;;;;;;5005625;28;20138;-70
2023/07/05 06:40:54;;;;;;;36.80;7.10;;;12.50;99.90;;;;;;4993454;28;20048;-70
2023/07/05 06:43:24;;;;;;;48.17;7.82;;;12.50;99.90;;;;;;4998225;28;20382;-71
2023/07/05 06:45:51;;;;;;;33.00;6.75;;;12.50;99.90;;;;;;5008696;28;20049;-69
2023/07/05 06:48:17;;;;;;;40.03;6.55;;;12.60;99.90;;;;;;4989650;28;20045;-70
2023/07/05 06:50:42;;;;;;;35.13;7.47;;;12.60;99.90;;;;;;4988485;28;20105;-70
2023/07/05 06:53:09;;;;;;;40.13;7.13;;;12.60;99.90;;;;;;5000065;28;20036;-69
2023/07/05 06:55:38;;;;;;;29.90;5.28;;;12.60;99.90;;;;;;4985832;28;20038;-70
2023/07/05 06:58:04;;;;;;;40.28;7.18;;;12.70;99.90;;;;;;4992973;28;20390;-70
2023/07/05 07:00:30;;;;;;;39.53;7.47;;;12.70;99.90;;;;;;4998297;28;20037;-70
2023/07/05 07:02:55;;;;;;;46.13;8.20;;;12.70;99.90;;;;;;4949620;28;20046;-68
2023/07/05 07:05:21;;;;;;;43.53;7.18;;;12.80;99.90;;;;;;4977662;28;20121;-69
2023/07/05 07:07:50;;;;;;;40.38;7.30;;;12.80;99.90;;;;;;5005630;28;20042;-69
2023/07/05 07:10:16;;;;;;;38.67;8.07;;;12.80;99.90;;;;;;4997457;28;20113;-69
2023/07/05 07:12:41;;;;;;;21.58;5.15;;;12.90;99.90;;;;;;4994465;28;20120;-69
2023/07/05 07:15:07;;;;;;;35.15;6.20;;;13.00;99.90;;;;;;4986560;28;20035;-70
2023/07/05 07:17:32;;;;;;;36.78;6.13;;;13.00;99.90;;;;;;4988537;28;20042;-68
2023/07/05 07:19:58;;;;;;;36.03;6.28;;;13.10;99.90;;;;;;5000051;28;20108;-68
2023/07/05 07:22:24;;;;;;;28.77;6.35;;;13.10;99.90;;;;;;5002727;28;20022;-68
2023/07/05 07:24:51;;;;;;;37.25;5.82;;;13.20;99.90;;;;;;5000917;28;20050;-68
2023/07/05 07:27:17;;;;;;;39.33;7.13;;;13.10;99.90;;;;;;5004607;28;20761;-68
2023/07/05 07:29:43;;;;;;;44.33;7.25;;;13.10;99.90;;;;;;4990166;28;20043;-68
2023/07/05 07:32:09;;;;;;;37.17;7.65;;;13.20;99.90;;;;;;4995194;28;20033;-67
2023/07/05 07:34:34;;;;;;;46.95;9.07;;;13.30;99.90;;;;;;5002873;28;20034;-68
2023/07/05 07:37:00;;;;;;;46.45;7.78;;;13.30;99.90;;;;;;5002388;28;20025;-68
2023/07/05 07:39:26;;;;;;;43.10;7.07;;;13.30;99.90;;;;;;4995814;28;20034;-68
2023/07/05 07:41:51;;;;;;;37.70;6.97;;;13.30;99.90;;;;;;5007157;28;20026;-67
2023/07/05 07:44:19;;;;;;;41.10;8.18;;;13.30;99.90;;;;;;4996134;28;20049;-68
2023/07/05 07:46:45;;;;;;;31.63;7.45;;;13.30;99.90;;;;;;5001295;28;20505;-67
2023/07/05 07:49:12;;;;;;;32.47;5.97;;;13.30;99.90;;;;;;5003769;28;20033;-67
2023/07/05 07:51:39;;;;;;;41.25;6.20;;;13.30;99.90;;;;;;5009345;28;20038;-67
2023/07/05 07:54:08;;;;;;;46.92;7.60;;;13.30;99.90;;;;;;4995022;28;20058;-68
2023/07/05 07:56:34;;;;;;;42.80;8.80;;;13.20;99.90;;;;;;5003027;28;20121;-67
2023/07/05 07:59:01;;;;;;;43.15;8.27;;;13.10;99.90;;;;;;4998868;28;20116;-68
2023/07/05 08:01:29;;;;;;;35.80;7.43;;;13.20;99.90;;;;;;5008481;28;20155;-68
2023/07/05 08:03:57;;;;;;;22.98;5.35;;;13.20;99.90;;;;;;4993826;28;20100;-67
2023/07/05 08:06:30;;;;;;;40.83;6.30;;;13.20;99.90;;;;;;5004304;28;20617;-67
2023/07/05 08:08:56;;;;;;;27.08;6.13;;;13.30;99.90;;;;;;5000437;28;20038;-67
2023/07/05 08:11:22;;;;;;;26.33;5.40;;;13.30;99.90;;;;;;4995963;28;20037;-67
2023/07/05 08:13:48;;;;;;;29.35;5.43;;;13.40;99.90;;;;;;5006145;28;20049;-67
2023/07/05 08:16:15;;;;;;;25.80;4.78;;;13.50;99.90;;;;;;4995579;28;20056;-67
2023/07/05 08:18:41;;;;;;;24.42;4.93;;;13.50;99.90;;;;;;5001703;28;20104;-68
2023/07/05 08:21:06;;;;;;;24.55;5.03;;;13.60;99.90;;;;;;5002693;28;20731;-66
2023/07/05 08:23:32;;;;;;;25.70;4.53;;;13.60;99.90;;;;;;4994266;28;20141;-66
2023/07/05 08:26:00;;;;;;;29.00;5.25;;;13.60;99.90;;;;;;4991118;28;20526;-66
2023/07/05 08:28:26;;;;;;;35.35;5.63;;;13.70;99.90;;;;;;5004431;28;20486;-66
2023/07/05 08:31:01;;;;;;;26.60;3.97;;;13.80;99.90;;;;;;4992072;28;20038;-66
2023/07/05 08:33:28;;;;;;;25.95;4.72;;;13.80;99.90;;;;;;4992584;28;20122;-66
2023/07/05 08:36:07;;;;;;;21.70;4.45;;;13.80;99.90;;;;;;4990804;28;20028;-66
2023/07/05 08:38:32;;;;;;;25.83;4.25;;;13.90;99.90;;;;;;4992514;28;20149;-66
2023/07/05 08:41:16;;;;;;;25.75;5.00;;;13.90;99.90;;;;;;4991072;28;20148;-66
2023/07/05 08:43:57;;;;;;;23.00;4.70;;;13.90;99.90;;;;;;4992602;28;20058;-65
2023/07/05 08:46:26;;;;;;;22.75;4.55;;;13.90;99.90;;;;;;4992670;28;20045;-65
2023/07/05 08:48:58;;;;;;;26.20;4.68;;;14.00;99.90;;;;;;4987925;28;20026;-67
2023/07/05 08:51:25;;;;;;;19.85;3.85;;;14.00;99.90;;;;;;4993161;28;20026;-67
2023/07/05 08:53:57;;;;;;;30.80;5.03;;;13.90;99.90;;;;;;4993053;28;20030;-67
2023/07/05 08:56:34;;;;;;;20.17;3.30;;;14.00;99.90;;;;;;4992496;28;20489;-67
2023/07/05 08:59:26;;;;;;;19.00;4.57;;;14.00;99.90;;;;;;4992753;28;20395;-68
2023/07/05 09:01:55;;;;;;;26.37;4.57;;;14.00;99.90;;;;;;4992388;28;20478;-68
2023/07/05 09:04:27;;;;;;;22.58;4.07;;;14.00;99.90;;;;;;4992609;28;20382;-67
2023/07/05 09:07:41;;;;;;;23.15;4.55;;;14.00;99.90;;;;;;4992839;28;20032;-66
2023/07/05 09:10:30;;;;;;;23.80;5.53;;;14.00;99.90;;;;;;4981168;28;20057;-67
2023/07/05 09:12:58;;;;;;;25.73;4.85;;;14.10;99.90;;;;;;4983499;28;20038;-67
2023/07/05 09:15:29;;;;;;;24.27;4.60;;;14.10;99.90;;;;;;4984346;28;20031;-66
2023/07/05 09:18:16;;;;;;;28.63;4.68;;;14.10;99.90;;;;;;4983483;28;20026;-67
2023/07/05 09:21:00;;;;;;;21.35;4.82;;;14.20;99.90;;;;;;4985622;28;20111;-66
2023/07/05 09:23:54;;;;;;;25.75;4.40;;;14.30;99.90;;;;;;4983071;28;20054;-66
2023/07/05 09:26:36;;;;;;;18.90;4.03;;;14.40;99.90;;;;;;4982500;28;20154;-67
2023/07/05 09:29:14;;;;;;;20.50;3.38;;;14.50;99.90;;;;;;4984891;28;20027;-66
2023/07/05 09:31:42;;;;;;;14.63;3.20;;;14.60;99.90;;;;;;4983446;28;20026;-66
2023/07/05 09:34:37;;;;;;;17.42;3.13;;;14.60;99.90;;;;;;4983621;28;20035;-66
2023/07/05 09:37:19;;;;;;;17.80;3.35;;;14.70;99.90;;;;;;4982892;28;20049;-67
2023/07/05 09:39:53;;;;;;;;;;;14.80;99.90;;;;;;4985345;28;20489;-66
2023/07/05 09:42:26;;;;;;;15.45;3.17;;;14.90;99.90;;;;;;4972925;28;20005;-66
2023/07/05 09:44:52;;;;;;;13.20;3.33;;;14.90;99.90;;;;;;4980573;28;20053;-67
2023/07/05 09:47:20;;;;;;;20.83;3.40;;;14.90;99.90;;;;;;4995832;28;20037;-66
2023/07/05 09:49:46;;;;;;;21.25;4.13;;;14.90;99.90;;;;;;5003759;28;20030;-66
2023/07/05 09:52:13;;;;;;;18.13;3.80;;;14.90;99.90;;;;;;5003694;28;20026;-66
2023/07/05 09:54:40;;;;;;;20.95;4.15;;;15.00;99.90;;;;;;4995577;28;20030;-66
2023/07/05 09:57:09;;;;;;;20.50;4.53;;;14.90;99.90;;;;;;5008714;28;20026;-67
2023/07/05 09:59:36;;;;;;;20.38;3.67;;;15.00;99.90;;;;;;4998118;28;20022;-66
2023/07/05 10:02:16;;;;;;;15.00;3.50;;;15.00;99.90;;;;;;5000231;28;20022;-67
2023/07/05 10:04:47;;;;;;;19.80;3.80;;;15.00;99.90;;;;;;5001428;28;20051;-67
2023/07/05 10:07:35;;;;;;;21.43;3.87;;;14.90;99.90;;;;;;4995583;28;20065;-67
2023/07/05 10:10:10;;;;;;;15.10;3.38;;;15.00;99.90;;;;;;5002094;28;20033;-67
2023/07/05 10:12:39;;;;;;;21.63;3.95;;;15.10;99.90;;;;;;4994194;28;20061;-66
2023/07/05 10:15:22;;;;;;;24.35;4.07;;;15.20;99.90;;;;;;5008057;28;20034;-67
2023/07/05 10:17:51;;;;;;;20.70;4.18;;;15.30;99.90;;;;;;4998019;28;20080;-66
2023/07/05 10:20:19;;;;;;;28.05;5.88;;;15.40;99.90;;;;;;4999092;28;20466;-65
2023/07/05 10:22:45;;;;;;;25.65;4.30;;;15.40;99.90;;;;;;5005709;28;20120;-67
2023/07/05 10:25:19;;;;;;;19.25;3.95;;;15.50;99.90;;;;;;4992108;28;20046;-66
2023/07/05 10:27:48;;;;;;;12.40;2.92;;;15.60;99.90;;;;;;5002547;28;20030;-66
2023/07/05 10:30:17;;;;;;;18.80;3.50;;;15.60;99.90;;;;;;4999791;28;20034;-66
2023/07/05 10:32:45;;;;;;;18.02;3.95;;;15.70;99.90;;;;;;4994771;28;20030;-66
2023/07/05 10:35:27;;;;;;;18.13;4.03;;;15.70;99.90;;;;;;4993972;28;20023;-66
2023/07/05 10:37:54;;;;;;;16.35;3.92;;;15.80;99.90;;;;;;4989470;28;20053;-67
2023/07/05 10:40:21;;;;;;;21.05;3.75;;;15.80;99.90;;;;;;4995465;28;20081;-66
2023/07/05 10:42:53;;;;;;;20.58;3.90;;;15.80;99.90;;;;;;4995442;28;20026;-66
2023/07/05 10:45:21;;;;;;;21.98;4.90;;;15.80;99.90;;;;;;4995663;28;20048;-67
2023/07/05 10:47:54;;;;;;;16.27;3.13;;;15.80;99.90;;;;;;4994813;28;20035;-66
2023/07/05 10:50:28;;;;;;;15.90;4.07;;;15.90;99.90;;;;;;4995936;28;20089;-66
2023/07/05 10:53:03;;;;;;;18.20;3.50;;;15.90;99.90;;;;;;5011060;28;20455;-65
2023/07/05 10:55:56;;;;;;;16.50;3.15;;;16.00;99.90;;;;;;4995474;28;20034;-66
2023/07/05 10:58:28;;;;;;;13.48;3.38;;;16.00;99.90;;;;;;5005163;28;20026;-65
2023/07/05 11:01:03;;;;;;;22.45;3.33;;;16.00;99.90;;;;;;4995007;28;20045;-65
2023/07/05 11:03:45;;;;;;;17.45;3.65;;;16.00;99.90;;;;;;4995075;28;20033;-66
2023/07/05 11:06:13;;;;;;;12.25;2.97;;;15.90;99.90;;;;;;4994690;28;20030;-66
2023/07/05 11:08:41;;;;;;;16.83;4.80;;;16.00;99.90;;;;;;4994164;28;20035;-66
2023/07/05 11:11:30;;;;;;;26.67;5.68;;;16.00;99.90;;;;;;4995003;28;20022;-67
2023/07/05 11:14:03;;;;;;;15.98;2.90;;;16.20;99.90;;;;;;4990117;28;20034;-67
2023/07/05 11:16:30;;;;;;;22.05;3.70;;;16.30;99.90;;;;;;4991523;28;20058;-67
2023/07/05 11:19:04;;;;;;;20.15;3.85;;;16.40;99.90;;;;;;4994666;28;20034;-67
2023/07/05 11:21:50;;;;;;;17.30;3.45;;;16.50;99.90;;;;;;4991290;28;20030;-67
2023/07/05 11:24:38;;;;;;;12.93;3.20;;;16.50;99.90;;;;;;5009955;28;20061;-67
2023/07/05 11:27:36;;;;;;;19.67;3.30;;;16.60;99.90;;;;;;5013770;28;20034;-66
2023/07/05 11:30:03;;;;;;;12.93;3.40;;;16.40;99.90;;;;;;4991139;28;20050;-67
2023/07/05 11:33:11;;;;;;;15.73;2.90;;;16.30;99.90;;;;;;5014177;28;20038;-67
2023/07/05 11:35:47;;;;;;;14.50;3.47;;;16.20;99.90;;;;;;5013065;28;20034;-67
2023/07/05 11:38:40;;;;;;;13.13;3.00;;;16.20;99.90;;;;;;5013981;28;20022;-66
2023/07/05 11:41:24;;;;;;;15.32;3.58;;;16.10;99.90;;;;;;5013749;28;20029;-66
2023/07/05 11:44:01;;;;;;;14.48;2.90;;;16.00;99.90;;;;;;5014098;28;20359;-66
2023/07/05 11:46:38;;;;;;;16.38;3.60;;;15.90;99.90;;;;;;5013592;28;20030;-66
2023/07/05 11:49:29;;;;;;;14.35;3.10;;;15.80;99.90;;;;;;5013682;28;20022;-66
2023/07/05 11:52:16;;;;;;;15.75;3.13;;;15.80;99.90;;;;;;5013355;28;20030;-66
2023/07/05 11:54:48;;;;;;;10.07;2.65;;;15.90;99.90;;;;;;5013446;28;20026;-66
2023/07/05 11:57:15;;;;;;;11.60;3.10;;;16.10;99.90;;;;;;5006892;28;20033;-66
2023/07/05 12:00:06;;;;;;;12.90;2.88;;;16.30;99.90;;;;;;4993848;28;20068;-66
2023/07/05 12:02:51;;;;;;;14.38;3.00;;;16.60;99.90;;;;;;4974115;28;20077;-66
2023/07/05 12:05:21;;;;;;;11.15;3.13;;;16.80;99.90;;;;;;4992211;28;20046;-66
2023/07/05 12:08:10;;;;;;;11.50;3.03;;;16.90;99.90;;;;;;4994426;28;20375;-66
2023/07/05 12:10:36;;;;;;;14.23;2.42;;;16.90;99.90;;;;;;4993059;28;20026;-65
2023/07/05 12:13:06;;;;;;;13.43;3.17;;;16.90;99.90;;;;;;4993423;28;20026;-65
2023/07/05 12:15:35;;;;;;;14.52;3.08;;;17.10;99.90;;;;;;4993556;28;20030;-66
2023/07/05 12:18:02;;;;;;;13.70;3.05;;;17.20;99.90;;;;;;4989198;28;20030;-66
2023/07/05 12:20:30;;;;;;;13.30;2.50;;;17.20;99.90;;;;;;4974365;28;20030;-66
2023/07/05 12:22:57;;;;;;;9.13;2.30;;;17.30;99.90;;;;;;4973876;28;20027;-66
2023/07/05 12:25:24;;;;;;;16.55;2.95;;;17.30;99.90;;;;;;4973652;28;20054;-65
2023/07/05 12:27:51;;;;;;;9.02;2.20;;;17.30;99.90;;;;;;4973908;28;20026;-66
2023/07/05 12:30:20;;;;;;;10.50;2.40;;;17.30;99.90;;;;;;4974065;28;20110;-65
2023/07/05 12:32:51;;;;;;;9.25;2.63;;;17.30;99.90;;;;;;4973948;28;20058;-65
2023/07/05 12:35:25;;;;;;;8.30;2.38;;;17.30;99.90;;;;;;4973565;28;20030;-65
2023/07/05 12:37:56;;;;;;;12.57;2.30;;;17.40;99.90;;;;;;4973695;28;20027;-66
2023/07/05 12:40:26;;;;;;;10.47;2.17;;;17.60;99.90;;;;;;4973543;28;20030;-67
2023/07/05 12:42:54;;;;;;;12.32;2.00;;;17.90;99.90;;;;;;4973446;28;20285;-66
2023/07/05 12:45:28;;;;;;;10.50;2.10;;;18.20;99.90;;;;;;4973960;28;20117;-66
2023/07/05 12:47:54;;;;;;;12.07;2.20;;;18.50;99.90;;;;;;4975386;28;20548;-67
2023/07/05 12:50:23;;;;;;;10.15;2.40;;;18.40;99.90;;;;;;4992779;28;20014;-67
2023/07/05 12:53:01;;;;;;;12.02;2.60;;;18.20;99.90;;;;;;4988812;28;20113;-66
2023/07/05 12:55:28;;;;;;;12.60;2.67;;;17.80;99.90;;;;;;4983094;28;20143;-67